Time;durP1;ratioP1;P1;durP2;ratioP2;P2;SDS_P1;SDS_P2;PMS_P1;PMS_P2;Temp;Humidity;BMP_temperature;BMP_pressure;BME280_temperature;BME280_humidity;BME280_pressure;Samples;Min_cycle;Max_cycle;Signal;HPM_P1;HPM_P2
2023/03/16 00:02:14;;;;;;;28.60;10.17;;;-2.60;99.90;;;;;;4427195;28;658854;-68
2023/03/16 00:05:01;;;;;;;29.83;10.18;;;-2.60;99.90;;;;;;4397939;28;658823;-73
2023/03/16 00:07:50;;;;;;;25.23;10.17;;;-2.60;99.90;;;;;;4419528;28;658943;-71
2023/03/16 00:10:37;;;;;;;27.53;9.97;;;-2.70;99.90;;;;;;4411961;28;659351;-72
2023/03/16 00:13:25;;;;;;;29.80;10.73;;;-2.70;99.90;;;;;;4435168;28;658075;-72
2023/03/16 00:16:15;;;;;;;32.37;10.63;;;-2.70;99.90;;;;;;4395961;28;659924;-71
2023/03/16 00:19:04;;;;;;;29.40;10.37;;;-2.80;99.90;;;;;;4409579;28;659270;-72
2023/03/16 00:21:51;;;;;;;32.23;10.67;;;-2.80;99.90;;;;;;4396498;28;658735;-71
2023/03/16 00:24:42;;;;;;;37.83;12.03;;;-2.80;99.90;;;;;;4425598;28;660251;-72
2023/03/16 00:27:29;;;;;;;32.03;11.50;;;-2.80;99.90;;;;;;4404305;28;658891;-71
2023/03/16 00:30:16;;;;;;;35.30;12.05;;;-2.90;99.90;;;;;;4411042;28;658419;-71
2023/03/16 00:33:04;;;;;;;36.50;12.67;;;-2.90;99.90;;;;;;4432663;28;658519;-71
2023/03/16 00:36:00;;;;;;;29.77;12.20;;;-2.90;99.90;;;;;;4417708;28;658553;-72
2023/03/16 00:38:48;;;;;;;29.60;11.57;;;-3.00;99.90;;;;;;4410290;28;658843;-71
2023/03/16 00:41:37;;;;;;;37.57;12.57;;;-3.00;99.90;;;;;;4417933;28;658486;-71
2023/03/16 00:44:24;;;;;;;33.73;12.93;;;-3.10;99.90;;;;;;4438846;28;658457;-71
2023/03/16 00:47:13;;;;;;;28.73;11.67;;;-3.10;99.90;;;;;;4419813;28;659449;-72
2023/03/16 00:50:01;;;;;;;32.33;12.50;;;-3.10;99.90;;;;;;4421853;28;658525;-72
2023/03/16 00:52:48;;;;;;;30.43;11.93;;;-3.10;99.90;;;;;;4442704;28;659317;-70
2023/03/16 00:55:35;;;;;;;36.70;13.47;;;-3.10;99.90;;;;;;4420983;28;659495;-70
2023/03/16 00:58:24;;;;;;;30.00;11.40;;;-3.10;99.90;;;;;;4431087;28;659645;-72
2023/03/16 01:01:13;;;;;;;35.97;11.30;;;-3.20;99.90;;;;;;4415612;28;658678;-72
2023/03/16 01:04:00;;;;;;;33.00;11.60;;;-3.20;99.90;;;;;;4424121;28;658626;-72
2023/03/16 01:06:47;;;;;;;32.53;10.73;;;-3.30;99.90;;;;;;4435039;28;660159;-69
2023/03/16 01:09:35;;;;;;;29.50;10.20;;;-3.30;99.90;;;;;;4438276;28;658435;-72
2023/03/16 01:12:23;;;;;;;28.60;10.13;;;-3.30;99.90;;;;;;4439262;28;659587;-71
2023/03/16 01:15:13;;;;;;;31.63;10.90;;;-3.40;99.90;;;;;;4415096;28;660106;-72
2023/03/16 01:18:00;;;;;;;27.05;10.85;;;-3.40;99.90;;;;;;4420714;28;658546;-72
2023/03/16 01:20:49;;;;;;;29.33;10.87;;;-3.40;99.90;;;;;;4433764;28;660111;-71
2023/03/16 01:23:37;;;;;;;27.63;10.87;;;-3.40;99.90;;;;;;4413277;28;658830;-72
2023/03/16 01:26:24;;;;;;;29.73;9.93;;;-3.40;99.90;;;;;;4437453;28;659348;-71
2023/03/16 01:29:11;;;;;;;30.87;10.73;;;-3.50;99.90;;;;;;4422850;28;658001;-71
2023/03/16 01:32:00;;;;;;;28.17;10.35;;;-3.50;99.90;;;;;;4434129;28;660265;-71
2023/03/16 01:34:47;;;;;;;33.30;10.47;;;-3.50;99.90;;;;;;4410256;28;659990;-72
2023/03/16 01:37:34;;;;;;;36.43;10.97;;;-3.50;99.90;;;;;;4440121;28;659056;-72
2023/03/16 01:40:21;;;;;;;32.57;11.20;;;-3.60;99.90;;;;;;4412425;28;658940;-71
2023/03/16 01:43:10;;;;;;;34.63;11.23;;;-3.50;99.90;;;;;;4434519;28;659109;-71
2023/03/16 01:46:18;;;;;;;23.90;9.63;;;-3.50;99.90;;;;;;4419483;28;659067;-72
2023/03/16 01:49:09;;;;;;;29.48;10.38;;;-3.70;99.90;;;;;;4388922;28;658479;-73
2023/03/16 01:51:57;;;;;;;31.03;10.57;;;-3.70;99.90;;;;;;4417900;28;658560;-72
2023/03/16 01:54:47;;;;;;;25.30;9.40;;;-3.70;99.90;;;;;;4413898;28;658716;-72
2023/03/16 01:57:35;;;;;;;29.93;10.50;;;-3.70;99.90;;;;;;4435838;28;657707;-71
2023/03/16 02:00:30;;;;;;;34.67;10.90;;;-3.70;99.90;;;;;;4412966;28;659203;-72
2023/03/16 02:03:18;;;;;;;28.70;10.63;;;-3.80;99.90;;;;;;4411663;28;658380;-72
2023/03/16 02:06:09;;;;;;;30.23;10.93;;;-3.80;99.90;;;;;;4413345;28;658852;-72
2023/03/16 02:08:56;;;;;;;26.70;10.60;;;-3.80;99.90;;;;;;4415907;28;659050;-71
2023/03/16 02:11:44;;;;;;;26.83;10.33;;;-3.80;99.90;;;;;;4435455;28;658353;-71
2023/03/16 02:14:31;;;;;;;26.90;10.70;;;-3.80;99.90;;;;;;4415039;28;658603;-72
2023/03/16 02:17:19;;;;;;;26.90;10.57;;;-3.90;99.90;;;;;;4440886;28;659688;-72
2023/03/16 02:20:14;;;;;;;22.50;9.60;;;-3.90;99.90;;;;;;4406554;28;660023;-71
2023/03/16 02:23:03;;;;;;;32.40;11.30;;;-4.00;99.90;;;;;;4412826;28;658559;-72
2023/03/16 02:25:53;;;;;;;27.60;10.73;;;-4.00;99.90;;;;;;4414786;28;658392;-71
2023/03/16 02:28:47;;;;;;;27.17;10.38;;;-4.00;99.90;;;;;;4417474;28;658711;-73
2023/03/16 02:31:35;;;;;;;24.10;10.00;;;-4.00;99.90;;;;;;4411269;28;658659;-71
2023/03/16 02:34:22;;;;;;;30.33;10.67;;;-4.10;99.90;;;;;;4413899;28;659644;-71
2023/03/16 02:37:11;;;;;;;31.07;10.43;;;-4.00;99.90;;;;;;4424161;28;659453;-72
2023/03/16 02:39:58;;;;;;;25.13;10.23;;;-4.10;99.90;;;;;;4441423;28;658508;-71
2023/03/16 02:42:45;;;;;;;29.13;10.38;;;-4.10;99.90;;;;;;4415239;28;659081;-72
2023/03/16 02:45:35;;;;;;;24.27;10.43;;;-4.20;99.90;;;;;;4432467;28;659959;-71
2023/03/16 02:48:27;;;;;;;27.43;10.67;;;-4.20;99.90;;;;;;4417268;28;659661;-71
2023/03/16 02:51:14;;;;;;;31.92;10.43;;;-4.20;99.90;;;;;;4417502;28;658288;-71
2023/03/16 02:54:02;;;;;;;29.20;11.00;;;-4.20;99.90;;;;;;4406839;28;659062;-73
2023/03/16 02:56:49;;;;;;;32.47;11.70;;;-4.20;99.90;;;;;;4436326;28;658568;-73
2023/03/16 02:59:36;;;;;;;30.97;10.83;;;-4.20;99.90;;;;;;4416895;28;659041;-71
2023/03/16 03:02:23;;;;;;;32.42;10.48;;;-4.20;99.90;;;;;;4440354;28;660036;-72
2023/03/16 03:05:12;;;;;;;39.80;13.10;;;-4.20;99.90;;;;;;4407582;28;658480;-73
2023/03/16 03:07:59;;;;;;;35.60;11.75;;;-4.20;99.90;;;;;;4437678;28;659020;-72
2023/03/16 03:10:47;;;;;;;37.83;12.60;;;-4.20;99.90;;;;;;4411021;28;659039;-72
2023/03/16 03:13:37;;;;;;;41.67;12.77;;;-4.20;99.90;;;;;;4439619;28;658575;-72
2023/03/16 03:16:24;;;;;;;37.93;13.30;;;-4.20;99.90;;;;;;4417981;28;659078;-72
2023/03/16 03:19:11;;;;;;;34.97;13.27;;;-4.20;99.90;;;;;;4413268;28;659463;-72
2023/03/16 03:22:02;;;;;;;39.00;13.50;;;-4.20;99.90;;;;;;4439243;28;659534;-72
2023/03/16 03:24:50;;;;;;;34.83;12.87;;;-4.20;99.90;;;;;;4407828;28;659425;-72
2023/03/16 03:27:37;;;;;;;47.27;14.23;;;-4.20;99.90;;;;;;4437998;28;659484;-72
2023/03/16 03:30:26;;;;;;;40.70;13.47;;;-4.20;99.90;;;;;;4429314;28;658893;-72
2023/03/16 03:33:13;;;;;;;40.90;13.88;;;-4.20;99.90;;;;;;4443821;28;658900;-72
2023/03/16 03:36:00;;;;;;;33.90;14.03;;;-4.20;99.90;;;;;;4416541;28;658694;-72
2023/03/16 03:38:49;;;;;;;42.73;12.70;;;-4.10;99.90;;;;;;4430768;28;660094;-71
2023/03/16 03:41:36;;;;;;;40.33;13.67;;;-4.10;99.90;;;;;;4418934;28;658546;-72
2023/03/16 03:44:24;;;;;;;40.77;13.23;;;-4.10;99.90;;;;;;4441454;28;659380;-71
2023/03/16 03:47:11;;;;;;;34.63;14.00;;;-4.10;99.90;;;;;;4422118;28;659380;-72
2023/03/16 03:49:58;;;;;;;40.37;14.40;;;-4.10;99.90;;;;;;4441184;28;658975;-72
2023/03/16 03:52:45;;;;;;;35.83;14.23;;;-3.90;99.90;;;;;;4422255;28;659082;-72
2023/03/16 03:55:34;;;;;;;35.47;15.20;;;-3.90;99.90;;;;;;4441024;28;659321;-72
2023/03/16 03:58:21;;;;;;;35.53;14.00;;;-3.90;99.90;;;;;;4425180;28;658691;-72
2023/03/16 04:01:08;;;;;;;38.95;15.38;;;-4.00;99.90;;;;;;4428923;28;658983;-72
2023/03/16 04:03:55;;;;;;;37.70;14.03;;;-4.00;99.90;;;;;;4416375;28;659079;-72
2023/03/16 04:06:43;;;;;;;30.00;13.53;;;-4.10;99.90;;;;;;4433076;28;660144;-72
2023/03/16 04:09:32;;;;;;;35.90;13.65;;;-4.20;99.90;;;;;;4422882;28;659031;-72
2023/03/16 04:12:21;;;;;;;36.77;13.57;;;-4.20;99.90;;;;;;4440465;28;658439;-72
2023/03/16 04:15:11;;;;;;;32.93;13.17;;;-4.30;99.90;;;;;;4419156;28;659880;-72
2023/03/16 04:17:58;;;;;;;41.60;14.27;;;-4.30;99.90;;;;;;4403811;28;658976;-71
2023/03/16 04:20:45;;;;;;;39.43;14.40;;;-4.40;99.90;;;;;;4412964;28;658799;-73
2023/03/16 04:23:33;;;;;;;33.30;14.23;;;-4.40;99.90;;;;;;4430395;28;659508;-71
2023/03/16 04:26:20;;;;;;;38.43;15.27;;;-4.40;99.90;;;;;;4420601;28;658788;-72
2023/03/16 04:29:09;;;;;;;38.43;14.47;;;-4.50;99.90;;;;;;4435896;28;659873;-72
2023/03/16 04:31:56;;;;;;;37.15;14.95;;;-4.50;99.90;;;;;;4410299;28;658383;-71
2023/03/16 04:34:46;;;;;;;33.10;13.27;;;-4.60;99.90;;;;;;4429706;28;659307;-69
2023/03/16 04:37:33;;;;;;;41.63;13.30;;;-4.60;99.90;;;;;;4421011;28;659050;-71
2023/03/16 04:40:20;;;;;;;33.00;13.13;;;-4.60;99.90;;;;;;4408020;28;658478;-72
2023/03/16 04:43:08;;;;;;;36.07;12.30;;;-4.60;99.90;;;;;;4437345;28;659675;-72
2023/03/16 04:45:57;;;;;;;35.40;14.10;;;-4.70;99.90;;;;;;4416313;28;658675;-72
2023/03/16 04:48:44;;;;;;;37.33;14.63;;;-4.70;99.90;;;;;;4437315;28;658423;-71
2023/03/16 04:51:31;;;;;;;36.53;14.40;;;-4.70;99.90;;;;;;4405832;28;658679;-72
2023/03/16 04:54:18;;;;;;;32.37;13.77;;;-4.80;99.90;;;;;;4442560;28;659503;-71
2023/03/16 04:57:07;;;;;;;357.83;24.03;;;-4.80;99.90;;;;;;4407375;28;658989;-72
2023/03/16 04:59:54;;;;;;;40.40;13.57;;;-4.80;99.90;;;;;;4428818;28;659377;-72
2023/03/16 05:02:43;;;;;;;37.30;14.43;;;-4.70;99.90;;;;;;4406443;28;658889;-71
2023/03/16 05:05:31;;;;;;;38.07;14.13;;;-4.70;99.90;;;;;;4422549;28;658944;-72
2023/03/16 05:08:18;;;;;;;33.63;14.03;;;-4.70;99.90;;;;;;4432671;28;659459;-71
2023/03/16 05:11:05;;;;;;;35.17;14.20;;;-4.70;99.90;;;;;;4399061;28;658787;-72
2023/03/16 05:13:53;;;;;;;40.07;14.43;;;-4.60;99.90;;;;;;4424486;28;659339;-72
2023/03/16 05:16:41;;;;;;;33.07;13.93;;;-4.60;99.90;;;;;;4426530;28;659205;-69
2023/03/16 05:19:30;;;;;;;35.40;14.60;;;-4.50;99.90;;;;;;4437043;28;659462;-73
2023/03/16 05:22:17;;;;;;;38.97;16.33;;;-4.50;99.90;;;;;;4399944;28;659966;-71
2023/03/16 05:25:05;;;;;;;37.83;14.70;;;-4.40;99.90;;;;;;4441846;28;658235;-71
2023/03/16 05:27:53;;;;;;;48.67;18.30;;;-4.40;99.90;;;;;;4417154;28;659466;-72
2023/03/16 05:30:42;;;;;;;50.67;20.27;;;-4.30;99.90;;;;;;4419837;28;658892;-73
2023/03/16 05:33:29;;;;;;;53.03;21.70;;;-4.10;99.90;;;;;;4442869;28;658896;-72
2023/03/16 05:36:17;;;;;;;46.87;18.33;;;-3.90;99.90;;;;;;4411067;28;658649;-72
2023/03/16 05:39:07;;;;;;;43.27;17.97;;;-3.80;99.90;;;;;;4419389;28;658653;-73
2023/03/16 05:41:54;;;;;;;60.83;24.97;;;-3.60;99.90;;;;;;4429496;28;658432;-72
2023/03/16 05:44:43;;;;;;;56.13;23.03;;;-3.50;99.90;;;;;;4401733;28;659798;-71
2023/03/16 05:47:30;;;;;;;66.43;25.50;;;-3.10;99.90;;;;;;4407589;28;658862;-72
2023/03/16 05:50:18;;;;;;;68.00;28.93;;;-3.00;99.90;;;;;;4423038;28;659445;-71
2023/03/16 05:53:07;;;;;;;62.90;27.80;;;-2.70;99.90;;;;;;4408887;28;658322;-73
2023/03/16 05:55:54;;;;;;;73.87;29.53;;;-2.60;99.90;;;;;;4437108;28;658408;-72
2023/03/16 05:58:42;;;;;;;1166.57;65.77;;;-2.50;99.90;;;;;;4415690;28;658608;-72
2023/03/16 06:01:29;;;;;;;80.97;34.43;;;-2.30;99.90;;;;;;4430396;28;661118;-72
2023/03/16 06:04:16;;;;;;;82.80;34.27;;;-2.20;99.90;;;;;;4412030;28;658258;-73
2023/03/16 06:07:03;;;;;;;88.63;34.27;;;-2.20;99.90;;;;;;4431101;28;659722;-72
2023/03/16 06:09:52;;;;;;;84.80;35.90;;;-2.10;99.90;;;;;;4414729;28;658564;-73
2023/03/16 06:12:40;;;;;;;83.73;34.57;;;-2.00;99.90;;;;;;4418383;28;659035;-72
2023/03/16 06:15:29;;;;;;;83.90;33.90;;;-1.90;99.90;;;;;;4398865;28;659260;-72
2023/03/16 06:18:16;;;;;;;71.77;33.30;;;-1.70;99.90;;;;;;4415733;28;658734;-72
2023/03/16 06:21:03;;;;;;;83.43;32.42;;;-1.60;99.90;;;;;;4437329;28;659361;-72
2023/03/16 06:23:51;;;;;;;79.33;30.47;;;-1.50;99.90;;;;;;4415501;28;659336;-73
2023/03/16 06:26:40;;;;;;;79.37;33.93;;;-1.40;99.90;;;;;;4422045;28;659654;-72
2023/03/16 06:29:27;;;;;;;75.43;33.20;;;-1.30;99.90;;;;;;4398429;28;658981;-72
2023/03/16 06:32:14;;;;;;;84.22;34.13;;;-1.20;99.90;;;;;;4426685;28;658955;-72
2023/03/16 06:35:02;;;;;;;85.53;34.10;;;-1.10;99.90;;;;;;4418588;28;658929;-72
2023/03/16 06:37:49;;;;;;;81.10;33.03;;;-0.90;99.90;;;;;;4435102;28;659396;-71
2023/03/16 06:40:36;;;;;;;69.50;29.67;;;-0.80;99.90;;;;;;4404885;28;658118;-69
2023/03/16 06:43:25;;;;;;;77.57;32.23;;;-0.70;99.90;;;;;;4437253;28;660177;-69
2023/03/16 06:46:12;;;;;;;79.03;32.90;;;-0.70;99.90;;;;;;4420403;28;659540;-70
2023/03/16 06:49:00;;;;;;;77.53;29.77;;;-0.50;99.90;;;;;;4433209;28;658777;-70
2023/03/16 06:51:47;;;;;;;89.83;34.33;;;-0.40;99.90;;;;;;4407943;28;659864;-70
2023/03/16 06:54:36;;;;;;;65.90;28.70;;;-0.30;99.90;;;;;;4433326;28;658101;-69
2023/03/16 06:57:23;;;;;;;66.60;28.23;;;-0.30;99.90;;;;;;4412889;28;659124;-70
2023/03/16 07:00:14;;;;;;;74.70;31.63;;;-0.30;99.90;;;;;;4418407;28;658979;-73
2023/03/16 07:03:01;;;;;;;61.90;27.83;;;-0.20;99.90;;;;;;4411282;28;658190;-72
2023/03/16 07:05:49;;;;;;;68.13;28.87;;;-0.10;99.90;;;;;;4432012;28;659023;-73
2023/03/16 07:08:36;;;;;;;71.17;31.00;;;0.10;99.90;;;;;;4415878;28;659078;-73
2023/03/16 07:11:23;;;;;;;76.03;31.43;;;0.20;99.90;;;;;;4440851;28;658608;-73
2023/03/16 07:14:10;;;;;;;69.40;28.25;;;0.30;99.90;;;;;;4418434;28;658214;-73
2023/03/16 07:17:00;;;;;;;68.93;30.47;;;0.50;99.90;;;;;;4433401;28;658360;-72
2023/03/16 07:19:47;;;;;;;67.47;30.50;;;0.60;99.90;;;;;;4412556;28;658322;-72
2023/03/16 07:22:35;;;;;;;74.23;33.30;;;0.60;99.90;;;;;;4426610;28;657602;-72
2023/03/16 07:25:22;;;;;;;70.80;32.70;;;0.60;99.90;;;;;;4438113;28;658263;-73
2023/03/16 07:28:10;;;;;;;75.87;34.53;;;0.60;99.90;;;;;;4444955;28;657445;-73
2023/03/16 07:30:58;;;;;;;74.68;32.50;;;0.40;99.90;;;;;;4415301;28;658341;-74
2023/03/16 07:33:47;;;;;;;80.10;34.33;;;0.70;99.90;;;;;;4412191;28;657628;-73
2023/03/16 07:36:34;;;;;;;64.13;30.37;;;0.80;99.90;;;;;;4431193;28;657786;-73
2023/03/16 07:39:21;;;;;;;57.43;26.90;;;1.00;99.90;;;;;;4412841;28;657803;-73
2023/03/16 07:42:08;;;;;;;66.67;29.03;;;1.10;99.90;;;;;;4437718;28;658679;-73
2023/03/16 07:44:56;;;;;;;64.23;24.70;;;1.00;99.90;;;;;;4413262;28;657541;-74
2023/03/16 07:47:43;;;;;;;64.00;26.10;;;1.10;99.90;;;;;;4442724;28;658154;-72
2023/03/16 07:50:32;;;;;;;67.23;28.40;;;1.10;99.90;;;;;;4409948;28;657639;-73
2023/03/16 07:53:19;;;;;;;65.10;28.80;;;1.40;99.90;;;;;;4434673;28;657124;-73
2023/03/16 07:56:07;;;;;;;59.70;23.17;;;1.70;99.90;;;;;;4416044;28;657789;-72
2023/03/16 07:58:54;;;;;;;44.70;18.10;;;1.60;99.90;;;;;;4444004;28;657537;-72
2023/03/16 08:01:41;;;;;;;43.07;19.73;;;1.50;99.90;;;;;;4415012;28;658091;-72
2023/03/16 08:04:29;;;;;;;38.90;18.00;;;1.70;99.90;;;;;;4437071;28;658825;-72
2023/03/16 08:07:17;;;;;;;45.00;18.70;;;1.70;99.90;;;;;;4416020;28;657949;-72
2023/03/16 08:10:05;;;;;;;47.50;18.43;;;2.00;99.90;;;;;;4445290;28;656878;-72
2023/03/16 08:12:52;;;;;;;52.00;18.87;;;2.30;99.90;;;;;;4417182;28;657907;-73
2023/03/16 08:15:41;;;;;;;46.33;19.87;;;2.40;99.90;;;;;;4432935;28;658099;-73
2023/03/16 08:18:28;;;;;;;42.53;19.05;;;2.60;99.90;;;;;;4432329;28;657914;-73
2023/03/16 08:21:15;;;;;;;44.10;19.93;;;2.90;99.90;;;;;;4411231;28;657707;-73
2023/03/16 08:24:05;;;;;;;42.50;19.50;;;2.70;99.90;;;;;;4417335;28;658401;-72
2023/03/16 08:26:52;;;;;;;45.20;19.33;;;2.90;99.90;;;;;;4417808;28;658748;-71
2023/03/16 08:29:39;;;;;;;50.30;21.48;;;3.10;99.90;;;;;;4431057;28;658024;-70
2023/03/16 08:32:27;;;;;;;47.60;21.27;;;3.30;99.90;;;;;;4421031;28;657551;-71
2023/03/16 08:35:15;;;;;;;38.97;16.63;;;3.50;99.90;;;;;;4445701;28;657447;-70
2023/03/16 08:38:02;;;;;;;54.13;21.60;;;3.70;99.90;;;;;;4408729;28;658330;-71
2023/03/16 08:40:52;;;;;;;49.33;20.77;;;3.50;99.90;;;;;;4441561;28;657933;-71
2023/03/16 08:43:39;;;;;;;49.63;21.70;;;3.50;99.90;;;;;;4417237;28;657802;-70
2023/03/16 08:46:26;;;;;;;55.83;21.77;;;3.50;99.90;;;;;;4419840;28;658216;-70
2023/03/16 08:49:13;;;;;;;43.10;20.10;;;3.60;99.90;;;;;;4431563;28;658060;-69
2023/03/16 08:52:01;;;;;;;36.87;17.90;;;3.40;99.90;;;;;;4413050;28;657762;-71
2023/03/16 08:54:48;;;;;;;53.17;23.33;;;4.00;99.90;;;;;;4425255;28;658437;-70
2023/03/16 08:57:38;;;;;;;52.50;22.33;;;4.60;99.90;;;;;;4412364;28;658972;-70
2023/03/16 09:00:25;;;;;;;47.43;20.13;;;4.70;99.90;;;;;;4427516;28;658074;-70
2023/03/16 09:03:12;;;;;;;49.10;19.20;;;4.00;99.90;;;;;;4444755;28;658649;-71
2023/03/16 09:06:01;;;;;;;28.50;13.13;;;4.50;99.90;;;;;;4427028;28;657611;-72
2023/03/16 09:08:48;;;;;;;45.65;20.30;;;4.80;99.90;;;;;;4427696;28;658872;-70
2023/03/16 09:11:35;;;;;;;44.03;19.83;;;4.50;99.90;;;;;;4409963;28;657995;-70
2023/03/16 09:14:24;;;;;;;38.63;17.47;;;4.70;99.90;;;;;;4439674;28;658126;-71
2023/03/16 09:17:11;;;;;;;41.73;18.30;;;4.80;99.90;;;;;;4417396;28;657858;-70
2023/03/16 09:19:59;;;;;;;30.47;13.80;;;4.40;99.90;;;;;;4441269;28;658155;-71
2023/03/16 09:22:46;;;;;;;30.90;13.60;;;5.10;99.90;;;;;;4422162;28;657938;-72
2023/03/16 09:25:34;;;;;;;34.80;13.37;;;5.00;99.90;;;;;;4444044;28;657113;-70
2023/03/16 09:28:21;;;;;;;30.30;10.45;;;4.60;99.90;;;;;;4422655;28;657641;-70
2023/03/16 09:31:10;;;;;;;35.77;15.07;;;5.00;99.90;;;;;;4438838;28;657653;-70
2023/03/16 09:33:57;;;;;;;23.08;10.75;;;4.50;99.90;;;;;;4420323;28;658429;-71
2023/03/16 09:36:45;;;;;;;24.10;9.57;;;4.90;99.90;;;;;;4426701;28;657414;-70
2023/03/16 09:39:32;;;;;;;30.77;14.17;;;5.20;99.90;;;;;;4417784;28;657353;-70
2023/03/16 09:42:20;;;;;;;35.05;13.43;;;5.20;99.90;;;;;;4437758;28;658307;-69
2023/03/16 09:45:13;;;;;;;29.07;13.63;;;4.80;99.90;;;;;;4416675;28;658186;-70
2023/03/16 09:48:03;;;;;;;32.33;14.53;;;4.30;99.90;;;;;;4395557;28;657917;-71
2023/03/16 09:50:51;;;;;;;31.77;14.33;;;4.20;99.90;;;;;;4407752;28;657561;-70
2023/03/16 09:53:39;;;;;;;31.90;12.20;;;4.10;99.90;;;;;;4421945;28;658110;-69
2023/03/16 09:56:29;;;;;;;17.53;8.33;;;3.60;99.90;;;;;;4388683;28;659081;-70
2023/03/16 09:59:17;;;;;;;11.17;5.03;;;4.20;99.90;;;;;;4399349;28;656978;-69
2023/03/16 10:02:16;;;;;;;15.83;4.83;;;4.30;99.90;;;;;;4416146;28;656446;-70
2023/03/16 10:05:08;;;;;;;15.40;6.03;;;4.50;96.20;;;;;;4391587;28;656808;-69
2023/03/16 10:08:01;;;;;;;16.27;5.73;;;5.30;98.60;;;;;;4374949;28;657035;-70
2023/03/16 10:11:11;;;;;;;15.00;5.80;;;5.40;94.50;;;;;;4381572;28;656664;-68
2023/03/16 10:14:01;;;;;;;22.63;6.53;;;5.40;94.50;;;;;;4391164;28;656980;-69
2023/03/16 10:16:50;;;;;;;25.27;8.33;;;4.90;98.30;;;;;;4386807;28;657524;-70
2023/03/16 10:19:40;;;;;;;30.90;11.33;;;4.50;99.90;;;;;;4381647;28;658278;-68
2023/03/16 10:22:30;;;;;;;31.23;11.67;;;4.20;99.90;;;;;;4392247;28;658715;-69
2023/03/16 10:25:20;;;;;;;32.43;13.37;;;4.40;99.90;;;;;;4403461;28;658551;-69
2023/03/16 10:28:07;;;;;;;28.03;10.90;;;4.70;99.90;;;;;;4405991;28;658263;-69
2023/03/16 10:30:55;;;;;;;22.23;10.50;;;4.90;99.90;;;;;;4408179;28;657066;-69
2023/03/16 10:33:43;;;;;;;27.47;11.00;;;5.20;99.90;;;;;;4387596;28;658602;-71
2023/03/16 10:36:32;;;;;;;24.07;9.50;;;5.90;99.90;;;;;;4385557;28;657508;-71
2023/03/16 10:39:20;;;;;;;19.57;7.83;;;6.50;99.90;;;;;;4420625;28;656687;-69
2023/03/16 10:42:14;;;;;;;22.77;7.90;;;6.20;94.00;;;;;;4391856;28;657535;-68
2023/03/16 10:45:02;;;;;;;19.47;6.63;;;5.30;96.40;;;;;;4404973;28;657939;-70
2023/03/16 10:47:49;;;;;;;15.03;6.50;;;4.60;97.30;;;;;;4434147;28;656060;-68
2023/03/16 10:50:36;;;;;;;14.40;4.90;;;4.60;99.90;;;;;;4408998;28;656303;-69
2023/03/16 10:53:25;;;;;;;17.50;6.17;;;4.70;99.40;;;;;;4422771;28;657642;-71
2023/03/16 10:56:21;;;;;;;14.15;5.70;;;5.30;99.90;;;;;;4418192;28;656823;-69
2023/03/16 10:59:16;;;;;;;13.83;5.77;;;6.30;94.20;;;;;;4421579;28;656645;-69
2023/03/16 11:02:08;;;;;;;11.33;4.87;;;6.10;92.30;;;;;;4418302;28;656649;-69
2023/03/16 11:04:56;;;;;;;12.47;6.00;;;5.40;93.60;;;;;;4386115;28;656557;-70
2023/03/16 11:07:49;;;;;;;17.27;7.23;;;5.40;94.90;;;;;;4431269;28;657657;-69
2023/03/16 11:10:37;;;;;;;13.87;5.60;;;5.20;93.90;;;;;;4415290;28;656879;-70
2023/03/16 11:13:33;;;;;;;13.73;6.00;;;5.70;94.00;;;;;;4420195;28;656694;-69
2023/03/16 11:16:25;;;;;;;13.87;5.77;;;6.10;91.00;;;;;;4400985;28;657038;-70
2023/03/16 11:19:14;;;;;;;12.60;4.97;;;6.10;91.20;;;;;;4417401;28;657361;-71
2023/03/16 11:22:04;;;;;;;16.77;5.67;;;6.70;89.80;;;;;;4420207;28;656417;-71
2023/03/16 11:24:52;;;;;;;13.67;4.60;;;6.60;83.70;;;;;;4407225;28;656593;-69
2023/03/16 11:27:42;;;;;;;9.13;4.03;;;5.70;80.20;;;;;;4429014;28;657447;-69
2023/03/16 11:30:34;;;;;;;13.47;4.60;;;5.70;77.50;;;;;;4444016;28;655396;-68
2023/03/16 11:33:21;;;;;;;12.53;5.13;;;5.30;79.00;;;;;;4418690;28;657263;-71
2023/03/16 11:36:19;;;;;;;13.20;5.00;;;6.30;80.90;;;;;;4420165;28;656440;-68
2023/03/16 11:39:11;;;;;;;15.97;5.60;;;7.00;85.20;;;;;;4422294;28;656786;-69
2023/03/16 11:42:19;;;;;;;12.95;4.97;;;6.50;81.30;;;;;;4418061;28;657719;-69
2023/03/16 11:45:15;;;;;;;14.43;5.43;;;6.00;82.00;;;;;;4412881;28;656540;-69
2023/03/16 11:48:15;;;;;;;11.37;4.77;;;5.70;87.10;;;;;;4417716;28;656439;-69
2023/03/16 11:51:06;;;;;;;16.73;4.70;;;6.30;87.00;;;;;;4394112;28;656967;-69
2023/03/16 11:53:59;;;;;;;12.70;4.47;;;7.00;86.80;;;;;;4422240;28;657460;-71
2023/03/16 11:56:48;;;;;;;12.53;4.20;;;7.10;79.70;;;;;;4405462;28;656736;-69
2023/03/16 11:59:48;;;;;;;11.80;4.20;;;7.20;76.60;;;;;;4417152;28;656781;-70
2023/03/16 12:02:49;;;;;;;10.50;4.00;;;6.80;75.10;;;;;;4400401;28;657366;-71
2023/03/16 12:05:52;;;;;;;6.37;3.80;;;6.10;74.30;;;;;;4399553;28;657151;-69
2023/03/16 12:08:53;;;;;;;7.97;3.10;;;5.90;76.30;;;;;;4419283;28;655755;-70
2023/03/16 12:11:42;;;;;;;6.45;2.90;;;5.60;78.20;;;;;;4413341;28;655339;-70
2023/03/16 12:14:32;;;;;;;7.03;3.30;;;5.70;82.50;;;;;;4432634;28;655815;-70
2023/03/16 12:17:21;;;;;;;6.83;3.23;;;6.10;77.60;;;;;;4412631;28;655375;-69
2023/03/16 12:20:14;;;;;;;7.40;3.37;;;5.80;77.10;;;;;;4404748;28;655786;-70
2023/03/16 12:23:06;;;;;;;8.97;3.10;;;5.50;75.90;;;;;;4417856;28;656149;-70
2023/03/16 12:25:53;;;;;;;7.60;3.03;;;5.60;77.70;;;;;;4422246;28;655942;-70
2023/03/16 12:28:41;;;;;;;10.30;3.60;;;6.10;79.10;;;;;;4410043;28;655632;-71
2023/03/16 12:31:30;;;;;;;8.37;3.30;;;6.40;77.40;;;;;;4434932;28;657353;-71
2023/03/16 12:34:23;;;;;;;7.67;3.30;;;5.90;72.90;;;;;;4421718;28;656081;-71
2023/03/16 12:37:24;;;;;;;8.87;3.40;;;6.50;73.40;;;;;;4396587;28;655623;-71
2023/03/16 12:40:23;;;;;;;5.53;2.70;;;7.00;69.80;;;;;;4419505;28;656325;-72
2023/03/16 12:43:17;;;;;;;7.83;2.77;;;7.10;68.20;;;;;;4397287;28;655888;-71
2023/03/16 12:46:07;;;;;;;7.60;3.20;;;6.70;65.70;;;;;;4408706;28;655841;-72
2023/03/16 12:48:56;;;;;;;5.60;2.40;;;6.20;70.20;;;;;;4436808;28;654816;-72
2023/03/16 12:51:44;;;;;;;6.30;2.57;;;6.00;68.50;;;;;;4406937;28;658767;-70
2023/03/16 12:54:32;;;;;;;8.23;2.87;;;6.10;71.00;;;;;;4410687;28;655416;-70
2023/03/16 12:57:23;;;;;;;6.97;2.93;;;5.70;71.20;;;;;;4439410;28;655784;-69
2023/03/16 13:00:12;;;;;;;7.77;3.20;;;5.90;73.60;;;;;;4421814;28;655606;-71
2023/03/16 13:03:00;;;;;;;7.40;3.33;;;6.20;72.60;;;;;;4429595;28;655392;-71
2023/03/16 13:05:50;;;;;;;7.27;3.07;;;6.60;74.90;;;;;;4406879;28;656536;-70
2023/03/16 13:08:42;;;;;;;7.20;2.77;;;6.10;69.90;;;;;;4403266;28;657632;-71
2023/03/16 13:11:39;;;;;;;10.43;2.57;;;6.00;73.30;;;;;;4426549;28;655085;-70
2023/03/16 13:14:39;;;;;;;8.47;3.13;;;5.40;75.60;;;;;;4409608;28;657094;-70
2023/03/16 13:17:30;;;;;;;8.20;3.20;;;5.60;81.70;;;;;;4421502;28;655252;-70
2023/03/16 13:20:25;;;;;;;8.70;3.10;;;5.40;78.20;;;;;;4415195;28;656656;-70
2023/03/16 13:23:20;;;;;;;9.27;3.07;;;4.60;84.20;;;;;;4411112;28;655945;-71
2023/03/16 13:26:14;;;;;;;9.40;3.57;;;4.80;86.70;;;;;;4420331;28;656338;-71
2023/03/16 13:29:06;;;;;;;10.33;3.53;;;5.20;85.20;;;;;;4420482;28;655765;-71
2023/03/16 13:31:55;;;;;;;13.20;3.42;;;5.60;86.60;;;;;;4418015;28;656847;-70
2023/03/16 13:34:47;;;;;;;7.00;3.20;;;5.80;85.20;;;;;;4415529;28;656957;-71
2023/03/16 13:37:34;;;;;;;9.43;3.70;;;6.30;84.50;;;;;;4416294;28;655120;-70
2023/03/16 13:40:23;;;;;;;32.53;11.13;;;6.30;80.50;;;;;;4418872;28;655358;-71
2023/03/16 13:43:13;;;;;;;20.00;7.60;;;6.50;83.30;;;;;;4404040;28;657334;-71
2023/03/16 13:46:01;;;;;;;35.13;13.20;;;6.90;80.30;;;;;;4418646;28;656354;-71
2023/03/16 13:48:50;;;;;;;20.43;7.00;;;7.20;79.00;;;;;;4438149;28;658030;-71
2023/03/16 13:51:38;;;;;;;8.50;3.80;;;7.70;75.80;;;;;;4411697;28;657434;-71
2023/03/16 13:54:26;;;;;;;9.60;4.33;;;8.20;72.90;;;;;;4422727;28;655645;-71
2023/03/16 13:57:21;;;;;;;6.93;3.50;;;8.80;71.80;;;;;;4445801;28;655194;-70
2023/03/16 14:00:15;;;;;;;8.07;3.03;;;9.10;64.50;;;;;;4417534;28;655510;-70
2023/03/16 14:03:09;;;;;;;8.53;2.67;;;8.50;60.70;;;;;;4398203;28;655447;-70
2023/03/16 14:06:00;;;;;;;5.80;2.20;;;8.70;59.90;;;;;;4422517;28;655259;-70
2023/03/16 14:08:48;;;;;;;8.07;2.57;;;8.80;54.50;;;;;;4418897;28;656138;-70
2023/03/16 14:11:35;;;;;;;5.97;2.65;;;8.80;55.80;;;;;;4419977;28;655706;-71
2023/03/16 14:14:28;;;;;;;9.00;2.57;;;9.00;54.80;;;;;;4440903;28;655819;-71
2023/03/16 14:17:17;;;;;;;6.90;2.37;;;7.80;56.40;;;;;;4405082;28;655977;-71